Lilongwe, Malawi
Current Conditions -  °F | °C
As of 12:00 AM on Sunday 26 Oct 2014 (Local Time) from FQLC Reporting Station
Clear Clear  
Wind Chill: 70°   Ceiling: Unl
Heat Index: 70°   Visibility: 6mi
Dew Point: 54°   Wind: 6mph
Humidity: 56%   Direction: 60°ENE
Pressure: 30.12"   Gusts: NA
Location:  13.97°S, 33.8°E
Report Text: FQLC 252200Z 06005KT CAVOK 21/12 Q1020
Loading
Personal Weather Stations






























Interactive Weather Map
Tropical Storm Tracking
New forecast layout! Learn more

10-Day Weather Forecast

Advertisements
Track Severe Weather on mobile